sensor_id;sensor_type;location;lat;lon;timestamp;pressure;altitude;pressure_sealevel;temperature;humidity
71126;BME280;58785;55.566;38.058;2024-02-26T00:01:41;101543.84;;;-0.19;62.01
71126;BME280;58785;55.566;38.058;2024-02-26T00:04:09;101542.16;;;-0.22;61.99
71126;BME280;58785;55.566;38.058;2024-02-26T00:06:35;101532.72;;;-0.27;61.96
71126;BME280;58785;55.566;38.058;2024-02-26T00:09:01;101522.41;;;-0.34;61.80
71126;BME280;58785;55.566;38.058;2024-02-26T00:11:28;101527.53;;;-0.31;61.92
71126;BME280;58785;55.566;38.058;2024-02-26T00:13:53;101532.88;;;-0.34;61.91
71126;BME280;58785;55.566;38.058;2024-02-26T00:16:19;101532.88;;;-0.34;62.05
71126;BME280;58785;55.566;38.058;2024-02-26T00:18:45;101525.88;;;-0.33;62.29
71126;BME280;58785;55.566;38.058;2024-02-26T00:21:11;101533.75;;;-0.33;61.98
71126;BME280;58785;55.566;38.058;2024-02-26T00:23:37;101531.97;;;-0.33;61.77
71126;BME280;58785;55.566;38.058;2024-02-26T00:26:03;101527.59;;;-0.32;61.95
71126;BME280;58785;55.566;38.058;2024-02-26T00:28:29;101530.22;;;-0.32;62.11
71126;BME280;58785;55.566;38.058;2024-02-26T00:30:54;101525.94;;;-0.35;62.06
71126;BME280;58785;55.566;38.058;2024-02-26T00:33:22;101526.88;;;-0.37;61.67
71126;BME280;58785;55.566;38.058;2024-02-26T00:35:48;101530.31;;;-0.35;61.91
71126;BME280;58785;55.566;38.058;2024-02-26T00:38:14;101527.53;;;-0.31;62.02
71126;BME280;58785;55.566;38.058;2024-02-26T00:40:40;101530.09;;;-0.27;61.74
71126;BME280;58785;55.566;38.058;2024-02-26T00:43:08;101524.06;;;-0.31;62.11
71126;BME280;58785;55.566;38.058;2024-02-26T00:45:35;101521.50;;;-0.33;62.07
71126;BME280;58785;55.566;38.058;2024-02-26T00:48:01;101518.88;;;-0.33;62.02
71126;BME280;58785;55.566;38.058;2024-02-26T00:50:30;101521.50;;;-0.33;61.79
71126;BME280;58785;55.566;38.058;2024-02-26T00:52:56;101514.88;;;-0.46;62.12
71126;BME280;58785;55.566;38.058;2024-02-26T00:55:21;101512.97;;;-0.39;61.99
71126;BME280;58785;55.566;38.058;2024-02-26T00:57:47;101514.75;;;-0.41;62.06
71126;BME280;58785;55.566;38.058;2024-02-26T01:00:13;101514.72;;;-0.40;61.99
71126;BME280;58785;55.566;38.058;2024-02-26T01:02:39;101496.66;;;-0.50;61.86
71126;BME280;58785;55.566;38.058;2024-02-26T01:05:08;101502.66;;;-0.45;61.95
71126;BME280;58785;55.566;38.058;2024-02-26T01:07:37;101517.34;;;-0.40;62.12
71126;BME280;58785;55.566;38.058;2024-02-26T01:10:05;101512.19;;;-0.43;61.64
71126;BME280;58785;55.566;38.058;2024-02-26T01:12:32;101503.66;;;-0.51;61.68
71126;BME280;58785;55.566;38.058;2024-02-26T01:14:58;101503.03;;;-0.59;62.10
71126;BME280;58785;55.566;38.058;2024-02-26T01:17:23;101503.81;;;-0.55;61.54
71126;BME280;58785;55.566;38.058;2024-02-26T01:19:49;101500.38;;;-0.57;61.74
71126;BME280;58785;55.566;38.058;2024-02-26T01:22:14;101516.00;;;-0.54;61.78
71126;BME280;58785;55.566;38.058;2024-02-26T01:24:40;101520.25;;;-0.50;61.79
71126;BME280;58785;55.566;38.058;2024-02-26T01:27:06;101510.59;;;-0.48;61.88
71126;BME280;58785;55.566;38.058;2024-02-26T01:29:33;101508.94;;;-0.52;61.53
71126;BME280;58785;55.566;38.058;2024-02-26T01:31:58;101512.31;;;-0.47;62.16
71126;BME280;58785;55.566;38.058;2024-02-26T01:34:24;101519.31;;;-0.48;61.59
71126;BME280;58785;55.566;38.058;2024-02-26T01:36:49;101514.09;;;-0.48;61.55
71126;BME280;58785;55.566;38.058;2024-02-26T01:39:15;101517.63;;;-0.50;61.85
71126;BME280;58785;55.566;38.058;2024-02-26T01:41:41;101512.53;;;-0.55;62.05
71126;BME280;58785;55.566;38.058;2024-02-26T01:44:07;101496.81;;;-0.55;62.15
71126;BME280;58785;55.566;38.058;2024-02-26T01:46:35;101506.34;;;-0.52;61.93
71126;BME280;58785;55.566;38.058;2024-02-26T01:49:02;101503.75;;;-0.54;61.94
71126;BME280;58785;55.566;38.058;2024-02-26T01:51:29;101498.63;;;-0.57;61.94
71126;BME280;58785;55.566;38.058;2024-02-26T01:53:57;101509.91;;;-0.55;62.08
71126;BME280;58785;55.566;38.058;2024-02-26T01:56:23;101502.00;;;-0.53;61.68
71126;BME280;58785;55.566;38.058;2024-02-26T01:58:56;101500.28;;;-0.54;61.81
71126;BME280;58785;55.566;38.058;2024-02-26T02:01:29;101496.91;;;-0.58;61.85
71126;BME280;58785;55.566;38.058;2024-02-26T02:03:58;101503.00;;;-0.57;61.80
71126;BME280;58785;55.566;38.058;2024-02-26T02:06:23;101501.28;;;-0.59;61.54
71126;BME280;58785;55.566;38.058;2024-02-26T02:08:49;101500.50;;;-0.62;62.02
71126;BME280;58785;55.566;38.058;2024-02-26T02:11:16;101498.78;;;-0.63;61.68
71126;BME280;58785;55.566;38.058;2024-02-26T02:13:43;101494.34;;;-0.61;61.64
71126;BME280;58785;55.566;38.058;2024-02-26T02:16:08;101493.69;;;-0.68;61.89
71126;BME280;58785;55.566;38.058;2024-02-26T02:18:34;101497.97;;;-0.65;61.86
71126;BME280;58785;55.566;38.058;2024-02-26T02:21:01;101499.88;;;-0.72;61.46
71126;BME280;58785;55.566;38.058;2024-02-26T02:23:27;101489.66;;;-0.81;61.83
71126;BME280;58785;55.566;38.058;2024-02-26T02:25:53;101498.16;;;-0.73;61.83
71126;BME280;58785;55.566;38.058;2024-02-26T02:28:23;101498.22;;;-0.74;61.82
71126;BME280;58785;55.566;38.058;2024-02-26T02:30:51;101496.53;;;-0.77;61.71
71126;BME280;58785;55.566;38.058;2024-02-26T02:33:16;101497.31;;;-0.73;61.71
71126;BME280;58785;55.566;38.058;2024-02-26T02:35:42;101498.22;;;-0.74;61.73
71126;BME280;58785;55.566;38.058;2024-02-26T02:38:08;101495.59;;;-0.74;61.94
71126;BME280;58785;55.566;38.058;2024-02-26T02:40:34;101486.88;;;-0.75;61.97
71126;BME280;58785;55.566;38.058;2024-02-26T02:42:59;101477.41;;;-0.80;61.74
71126;BME280;58785;55.566;38.058;2024-02-26T02:45:28;101486.88;;;-0.75;61.66
71126;BME280;58785;55.566;38.058;2024-02-26T02:47:55;101494.78;;;-0.76;61.88
71126;BME280;58785;55.566;38.058;2024-02-26T02:50:21;101498.38;;;-0.80;61.85
71126;BME280;58785;55.566;38.058;2024-02-26T02:52:47;101486.19;;;-0.81;61.71
71126;BME280;58785;55.566;38.058;2024-02-26T02:55:13;101482.78;;;-0.85;61.80
71126;BME280;58785;55.566;38.058;2024-02-26T02:57:39;101502.03;;;-0.86;61.70
71126;BME280;58785;55.566;38.058;2024-02-26T03:00:10;101486.38;;;-0.88;61.91
71126;BME280;58785;55.566;38.058;2024-02-26T03:02:37;101491.50;;;-0.84;61.74
71126;BME280;58785;55.566;38.058;2024-02-26T03:05:04;101494.25;;;-0.89;62.05
71126;BME280;58785;55.566;38.058;2024-02-26T03:07:30;101491.69;;;-0.92;61.62
71126;BME280;58785;55.566;38.058;2024-02-26T03:09:56;101489.38;;;-1.03;61.80
71126;BME280;58785;55.566;38.058;2024-02-26T03:12:23;101491.22;;;-1.06;62.19
71126;BME280;58785;55.566;38.058;2024-02-26T03:14:48;101499.94;;;-1.06;61.69
71126;BME280;58785;55.566;38.058;2024-02-26T03:17:14;101491.25;;;-1.08;62.16
71126;BME280;58785;55.566;38.058;2024-02-26T03:19:40;101492.31;;;-1.15;62.22
71126;BME280;58785;55.566;38.058;2024-02-26T03:22:06;101474.31;;;-1.27;62.28
71126;BME280;58785;55.566;38.058;2024-02-26T03:24:31;101484.72;;;-1.26;62.45
71126;BME280;58785;55.566;38.058;2024-02-26T03:26:57;101491.78;;;-1.28;62.70
71126;BME280;58785;55.566;38.058;2024-02-26T03:29:23;101484.81;;;-1.29;62.25
71126;BME280;58785;55.566;38.058;2024-02-26T03:31:48;101485.72;;;-1.30;62.41
71126;BME280;58785;55.566;38.058;2024-02-26T03:34:14;101490.09;;;-1.30;62.39
71126;BME280;58785;55.566;38.058;2024-02-26T03:36:40;101490.91;;;-1.28;62.38
71126;BME280;58785;55.566;38.058;2024-02-26T03:39:06;101483.03;;;-1.27;62.45
71126;BME280;58785;55.566;38.058;2024-02-26T03:41:34;101477.97;;;-1.34;62.45
71126;BME280;58785;55.566;38.058;2024-02-26T03:44:00;101466.00;;;-1.45;62.38
71126;BME280;58785;55.566;38.058;2024-02-26T03:46:26;101485.06;;;-1.38;62.77
71126;BME280;58785;55.566;38.058;2024-02-26T03:48:52;101478.13;;;-1.40;62.51
71126;BME280;58785;55.566;38.058;2024-02-26T03:51:18;101480.91;;;-1.47;62.50
71126;BME280;58785;55.566;38.058;2024-02-26T03:53:43;101476.47;;;-1.45;62.40
71126;BME280;58785;55.566;38.058;2024-02-26T03:56:11;101489.38;;;-1.37;62.77
71126;BME280;58785;55.566;38.058;2024-02-26T03:58:38;101491.19;;;-1.40;62.54
71126;BME280;58785;55.566;38.058;2024-02-26T04:01:04;101490.41;;;-1.44;62.86
71126;BME280;58785;55.566;38.058;2024-02-26T04:03:32;101487.84;;;-1.46;62.40
71126;BME280;58785;55.566;38.058;2024-02-26T04:05:58;101489.47;;;-1.41;62.62
71126;BME280;58785;55.566;38.058;2024-02-26T04:08:23;101492.09;;;-1.41;62.52
71126;BME280;58785;55.566;38.058;2024-02-26T04:10:49;101481.72;;;-1.45;62.81
71126;BME280;58785;55.566;38.058;2024-02-26T04:13:14;101487.06;;;-1.49;62.63
71126;BME280;58785;55.566;38.058;2024-02-26T04:15:40;101490.63;;;-1.53;62.94
71126;BME280;58785;55.566;38.058;2024-02-26T04:18:06;101485.41;;;-1.53;62.77
71126;BME280;58785;55.566;38.058;2024-02-26T04:20:31;101492.31;;;-1.51;63.06
71126;BME280;58785;55.566;38.058;2024-02-26T04:22:57;101491.41;;;-1.48;62.78
71126;BME280;58785;55.566;38.058;2024-02-26T04:25:22;101484.63;;;-1.57;62.66
71126;BME280;58785;55.566;38.058;2024-02-26T04:27:48;101498.56;;;-1.56;63.34
71126;BME280;58785;55.566;38.058;2024-02-26T04:30:14;101498.44;;;-1.52;62.77
71126;BME280;58785;55.566;38.058;2024-02-26T04:32:39;101497.50;;;-1.48;62.93
71126;BME280;58785;55.566;38.058;2024-02-26T04:35:05;101495.88;;;-1.53;63.22
71126;BME280;58785;55.566;38.058;2024-02-26T04:37:31;101482.97;;;-1.61;63.42
71126;BME280;58785;55.566;38.058;2024-02-26T04:40:00;101486.66;;;-1.68;63.43
71126;BME280;58785;55.566;38.058;2024-02-26T04:42:29;101496.25;;;-1.68;63.35
71126;BME280;58785;55.566;38.058;2024-02-26T04:44:55;101493.63;;;-1.68;63.34
71126;BME280;58785;55.566;38.058;2024-02-26T04:47:21;101498.00;;;-1.69;63.34
71126;BME280;58785;55.566;38.058;2024-02-26T04:49:51;101509.38;;;-1.71;63.63
71126;BME280;58785;55.566;38.058;2024-02-26T04:52:17;101503.19;;;-1.67;63.43
71126;BME280;58785;55.566;38.058;2024-02-26T04:54:42;101484.28;;;-1.79;63.47
71126;BME280;58785;55.566;38.058;2024-02-26T04:57:08;101495.34;;;-1.67;63.22
71126;BME280;58785;55.566;38.058;2024-02-26T04:59:33;101505.69;;;-1.63;63.06
71126;BME280;58785;55.566;38.058;2024-02-26T05:02:00;101501.44;;;-1.67;62.97
71126;BME280;58785;55.566;38.058;2024-02-26T05:04:26;101491.78;;;-1.65;63.26
71126;BME280;58785;55.566;38.058;2024-02-26T05:06:51;101492.66;;;-1.64;63.69
71126;BME280;58785;55.566;38.058;2024-02-26T05:09:18;101490.91;;;-1.64;63.08
71126;BME280;58785;55.566;38.058;2024-02-26T05:11:44;101492.56;;;-1.60;63.27
71126;BME280;58785;55.566;38.058;2024-02-26T05:14:09;101493.41;;;-1.59;63.09
71126;BME280;58785;55.566;38.058;2024-02-26T05:16:35;101485.56;;;-1.59;63.31
71126;BME280;58785;55.566;38.058;2024-02-26T05:19:01;101491.50;;;-1.53;63.04
71126;BME280;58785;55.566;38.058;2024-02-26T05:21:26;101482.56;;;-1.44;62.94
71126;BME280;58785;55.566;38.058;2024-02-26T05:23:52;101487.75;;;-1.42;63.00
71126;BME280;58785;55.566;38.058;2024-02-26T05:26:22;101493.84;;;-1.42;63.16
71126;BME280;58785;55.566;38.058;2024-02-26T05:28:48;101492.22;;;-1.46;63.03
71126;BME280;58785;55.566;38.058;2024-02-26T05:31:14;101488.66;;;-1.43;62.50
71126;BME280;58785;55.566;38.058;2024-02-26T05:33:40;101492.84;;;-1.36;62.62
71126;BME280;58785;55.566;38.058;2024-02-26T05:36:06;101492.19;;;-1.45;62.74
71126;BME280;58785;55.566;38.058;2024-02-26T05:38:32;101483.34;;;-1.39;62.46
71126;BME280;58785;55.566;38.058;2024-02-26T05:40:58;101491.00;;;-1.33;62.47
71126;BME280;58785;55.566;38.058;2024-02-26T05:43:27;101484.97;;;-1.35;62.62
71126;BME280;58785;55.566;38.058;2024-02-26T05:45:54;101494.44;;;-1.29;62.49
71126;BME280;58785;55.566;38.058;2024-02-26T05:48:21;101492.59;;;-1.26;62.42
71126;BME280;58785;55.566;38.058;2024-02-26T05:50:47;101502.06;;;-1.22;62.26
71126;BME280;58785;55.566;38.058;2024-02-26T05:53:14;101492.22;;;-1.12;62.51
71126;BME280;58785;55.566;38.058;2024-02-26T05:55:39;101493.75;;;-1.03;61.96
71126;BME280;58785;55.566;38.058;2024-02-26T05:58:05;101481.47;;;-1.00;62.24
71126;BME280;58785;55.566;38.058;2024-02-26T06:00:31;101485.38;;;-0.83;61.70
71126;BME280;58785;55.566;38.058;2024-02-26T06:02:58;101491.41;;;-0.80;62.12
71126;BME280;58785;55.566;38.058;2024-02-26T06:05:24;101483.41;;;-0.75;61.97
71126;BME280;58785;55.566;38.058;2024-02-26T06:07:49;101488.22;;;-0.60;61.62
71126;BME280;58785;55.566;38.058;2024-02-26T06:10:15;101495.09;;;-0.56;61.41
71126;BME280;58785;55.566;38.058;2024-02-26T06:12:41;101501.91;;;-0.50;61.28
71126;BME280;58785;55.566;38.058;2024-02-26T06:15:07;101500.06;;;-0.47;61.79
71126;BME280;58785;55.566;38.058;2024-02-26T06:17:33;101486.16;;;-0.49;61.51
71126;BME280;58785;55.566;38.058;2024-02-26T06:19:59;101498.06;;;-0.37;61.04
71126;BME280;58785;55.566;38.058;2024-02-26T06:22:26;101507.72;;;-0.39;61.25
71126;BME280;58785;55.566;38.058;2024-02-26T06:24:51;101507.41;;;-0.28;61.54
71126;BME280;58785;55.566;38.058;2024-02-26T06:27:17;101504.44;;;-0.16;61.02
71126;BME280;58785;55.566;38.058;2024-02-26T06:29:43;101500.47;;;0.00;60.94
71126;BME280;58785;55.566;38.058;2024-02-26T06:32:08;101496.44;;;0.16;60.63
71126;BME280;58785;55.566;38.058;2024-02-26T06:34:34;101496.00;;;0.30;60.42
71126;BME280;58785;55.566;38.058;2024-02-26T06:37:00;101487.84;;;0.39;59.82
71126;BME280;58785;55.566;38.058;2024-02-26T06:39:25;101500.59;;;0.51;60.25
71126;BME280;58785;55.566;38.058;2024-02-26T06:41:51;101496.78;;;0.62;60.07
71126;BME280;58785;55.566;38.058;2024-02-26T06:44:23;101476.53;;;0.65;59.65
71126;BME280;58785;55.566;38.058;2024-02-26T06:46:50;101485.38;;;0.88;59.57
71126;BME280;58785;55.566;38.058;2024-02-26T06:49:15;101475.97;;;0.82;59.57
71126;BME280;58785;55.566;38.058;2024-02-26T06:51:42;101494.06;;;0.90;59.62
71126;BME280;58785;55.566;38.058;2024-02-26T06:54:08;101495.69;;;0.94;59.72
71126;BME280;58785;55.566;38.058;2024-02-26T06:56:35;101494.41;;;1.05;59.45
71126;BME280;58785;55.566;38.058;2024-02-26T06:59:00;101485.56;;;1.08;59.37
71126;BME280;58785;55.566;38.058;2024-02-26T07:01:26;101490.56;;;1.15;59.62
71126;BME280;58785;55.566;38.058;2024-02-26T07:03:51;101499.09;;;1.22;59.64
71126;BME280;58785;55.566;38.058;2024-02-26T07:06:17;101497.56;;;1.40;59.16
71126;BME280;58785;55.566;38.058;2024-02-26T07:08:43;101482.75;;;1.37;59.36
71126;BME280;58785;55.566;38.058;2024-02-26T07:11:08;101488.78;;;1.64;59.04
71126;BME280;58785;55.566;38.058;2024-02-26T07:13:35;101496.28;;;1.75;58.55
71126;BME280;58785;55.566;38.058;2024-02-26T07:16:00;101490.56;;;1.87;58.49
71126;BME280;58785;55.566;38.058;2024-02-26T07:18:26;101495.25;;;2.03;58.17
71126;BME280;58785;55.566;38.058;2024-02-26T07:20:52;101493.19;;;2.11;58.23
71126;BME280;58785;55.566;38.058;2024-02-26T07:23:17;101492.19;;;2.13;58.22
71126;BME280;58785;55.566;38.058;2024-02-26T07:25:43;101475.06;;;2.25;58.00
71126;BME280;58785;55.566;38.058;2024-02-26T07:28:10;101471.56;;;2.24;58.00
71126;BME280;58785;55.566;38.058;2024-02-26T07:30:36;101465.81;;;2.15;57.97
71126;BME280;58785;55.566;38.058;2024-02-26T07:33:02;101474.06;;;2.06;57.75
71126;BME280;58785;55.566;38.058;2024-02-26T07:35:28;101477.75;;;2.01;58.22
71126;BME280;58785;55.566;38.058;2024-02-26T07:37:54;101479.91;;;1.90;58.60
71126;BME280;58785;55.566;38.058;2024-02-26T07:40:19;101475.91;;;1.80;58.25
71126;BME280;58785;55.566;38.058;2024-02-26T07:42:45;101475.91;;;1.80;58.44
71126;BME280;58785;55.566;38.058;2024-02-26T07:45:10;101478.09;;;1.92;57.87
71126;BME280;58785;55.566;38.058;2024-02-26T07:47:37;101467.66;;;2.13;58.03
71126;BME280;58785;55.566;38.058;2024-02-26T07:50:07;101478.84;;;2.40;57.27
71126;BME280;58785;55.566;38.058;2024-02-26T07:52:33;101485.59;;;2.47;56.89
71126;BME280;58785;55.566;38.058;2024-02-26T07:54:59;101484.56;;;2.51;57.47
71126;BME280;58785;55.566;38.058;2024-02-26T07:57:24;101474.81;;;2.53;57.30
71126;BME280;58785;55.566;38.058;2024-02-26T07:59:50;101485.44;;;2.50;57.17
71126;BME280;58785;55.566;38.058;2024-02-26T08:02:16;101478.00;;;2.39;57.50
71126;BME280;58785;55.566;38.058;2024-02-26T08:04:42;101474.75;;;2.33;57.65
71126;BME280;58785;55.566;38.058;2024-02-26T08:07:07;101474.63;;;2.36;57.48
71126;BME280;58785;55.566;38.058;2024-02-26T08:09:33;101476.34;;;2.37;57.12
71126;BME280;58785;55.566;38.058;2024-02-26T08:11:59;101468.56;;;2.55;57.23
71126;BME280;58785;55.566;38.058;2024-02-26T08:14:24;101467.13;;;2.69;56.80
71126;BME280;58785;55.566;38.058;2024-02-26T08:16:50;101478.03;;;2.81;56.87
71126;BME280;58785;55.566;38.058;2024-02-26T08:19:15;101472.56;;;3.06;56.28
71126;BME280;58785;55.566;38.058;2024-02-26T08:21:41;101468.72;;;3.34;56.05
71126;BME280;58785;55.566;38.058;2024-02-26T08:24:07;101468.84;;;3.51;55.92
71126;BME280;58785;55.566;38.058;2024-02-26T08:26:33;101470.16;;;3.60;55.33
71126;BME280;58785;55.566;38.058;2024-02-26T08:28:58;101468.91;;;3.68;55.30
71126;BME280;58785;55.566;38.058;2024-02-26T08:31:24;101475.34;;;3.82;55.05
71126;BME280;58785;55.566;38.058;2024-02-26T08:33:49;101462.63;;;3.90;55.09
71126;BME280;58785;55.566;38.058;2024-02-26T08:36:15;101467.94;;;3.71;54.67
71126;BME280;58785;55.566;38.058;2024-02-26T08:38:41;101457.72;;;3.63;55.34
71126;BME280;58785;55.566;38.058;2024-02-26T08:41:07;101466.41;;;3.65;54.94
71126;BME280;58785;55.566;38.058;2024-02-26T08:43:34;101478.03;;;3.61;55.42
71126;BME280;58785;55.566;38.058;2024-02-26T08:45:59;101475.06;;;3.49;55.09
71126;BME280;58785;55.566;38.058;2024-02-26T08:48:25;101469.72;;;3.50;55.53
71126;BME280;58785;55.566;38.058;2024-02-26T08:50:50;101467.94;;;3.51;55.33
71126;BME280;58785;55.566;38.058;2024-02-26T08:53:16;101475.81;;;3.52;55.53
71126;BME280;58785;55.566;38.058;2024-02-26T08:55:43;101475.00;;;3.50;55.31
71126;BME280;58785;55.566;38.058;2024-02-26T08:58:09;101457.03;;;3.39;55.46
71126;BME280;58785;55.566;38.058;2024-02-26T09:00:34;101455.09;;;3.24;55.28
71126;BME280;58785;55.566;38.058;2024-02-26T09:03:00;101463.41;;;3.15;55.21
71126;BME280;58785;55.566;38.058;2024-02-26T09:05:26;101460.94;;;3.10;55.28
71126;BME280;58785;55.566;38.058;2024-02-26T09:07:52;101472.69;;;3.03;55.34
71126;BME280;58785;55.566;38.058;2024-02-26T09:10:18;101467.97;;;3.11;55.40
71126;BME280;58785;55.566;38.058;2024-02-26T09:12:44;101464.00;;;3.01;55.77
71126;BME280;58785;55.566;38.058;2024-02-26T09:15:09;101460.69;;;2.96;55.54
71126;BME280;58785;55.566;38.058;2024-02-26T09:17:35;101465.66;;;3.04;55.87
71126;BME280;58785;55.566;38.058;2024-02-26T09:20:02;101465.78;;;3.01;55.61
71126;BME280;58785;55.566;38.058;2024-02-26T09:22:28;101469.22;;;3.03;55.95
71126;BME280;58785;55.566;38.058;2024-02-26T09:24:54;101467.22;;;3.08;55.99
71126;BME280;58785;55.566;38.058;2024-02-26T09:27:19;101463.59;;;3.10;55.95
71126;BME280;58785;55.566;38.058;2024-02-26T09:29:45;101461.56;;;2.97;56.04
71126;BME280;58785;55.566;38.058;2024-02-26T09:32:12;101462.69;;;2.91;56.37
71126;BME280;58785;55.566;38.058;2024-02-26T09:34:40;101466.19;;;2.92;56.42
71126;BME280;58785;55.566;38.058;2024-02-26T09:37:05;101466.09;;;2.93;56.02
71126;BME280;58785;55.566;38.058;2024-02-26T09:39:32;101457.22;;;2.96;56.14
71126;BME280;58785;55.566;38.058;2024-02-26T09:41:58;101454.13;;;2.86;56.03
71126;BME280;58785;55.566;38.058;2024-02-26T09:44:27;101451.06;;;2.75;55.86
71126;BME280;58785;55.566;38.058;2024-02-26T09:46:56;101446.59;;;2.77;56.72
71126;BME280;58785;55.566;38.058;2024-02-26T09:49:23;101441.19;;;2.80;56.01
71126;BME280;58785;55.566;38.058;2024-02-26T09:51:50;101448.06;;;2.84;56.25
71126;BME280;58785;55.566;38.058;2024-02-26T09:54:16;101451.47;;;2.86;55.98
71126;BME280;58785;55.566;38.058;2024-02-26T09:56:42;101444.81;;;2.77;55.71
71126;BME280;58785;55.566;38.058;2024-02-26T09:59:15;101451.22;;;2.72;56.34
71126;BME280;58785;55.566;38.058;2024-02-26T10:01:44;101447.28;;;2.82;56.60
71126;BME280;58785;55.566;38.058;2024-02-26T10:04:11;101441.41;;;2.96;55.73
71126;BME280;58785;55.566;38.058;2024-02-26T10:06:37;101428.16;;;2.97;55.90
71126;BME280;58785;55.566;38.058;2024-02-26T10:09:03;101431.53;;;3.01;56.18
71126;BME280;58785;55.566;38.058;2024-02-26T10:11:32;101423.03;;;2.94;56.17
71126;BME280;58785;55.566;38.058;2024-02-26T10:13:58;101439.28;;;3.04;56.17
71126;BME280;58785;55.566;38.058;2024-02-26T10:16:25;101439.44;;;3.01;56.28
71126;BME280;58785;55.566;38.058;2024-02-26T10:18:52;101430.53;;;3.03;55.99
71126;BME280;58785;55.566;38.058;2024-02-26T10:21:20;101430.13;;;3.12;56.06
71126;BME280;58785;55.566;38.058;2024-02-26T10:23:47;101422.88;;;3.17;56.02
71126;BME280;58785;55.566;38.058;2024-02-26T10:26:14;101422.78;;;3.19;55.92
71126;BME280;58785;55.566;38.058;2024-02-26T10:28:42;101418.25;;;3.23;56.13
71126;BME280;58785;55.566;38.058;2024-02-26T10:31:09;101413.63;;;3.28;56.06
71126;BME280;58785;55.566;38.058;2024-02-26T10:33:36;101412.84;;;3.26;56.46
71126;BME280;58785;55.566;38.058;2024-02-26T10:36:06;101410.66;;;3.35;56.08
71126;BME280;58785;55.566;38.058;2024-02-26T10:38:34;101424.69;;;3.36;56.01
71126;BME280;58785;55.566;38.058;2024-02-26T10:41:04;101421.41;;;3.31;56.03
71126;BME280;58785;55.566;38.058;2024-02-26T10:43:29;101423.72;;;3.18;56.60
71126;BME280;58785;55.566;38.058;2024-02-26T10:45:56;101414.88;;;3.19;56.14
71126;BME280;58785;55.566;38.058;2024-02-26T10:48:22;101413.91;;;3.22;56.36
71126;BME280;58785;55.566;38.058;2024-02-26T10:50:48;101409.84;;;3.14;55.80
71126;BME280;58785;55.566;38.058;2024-02-26T10:53:20;101410.16;;;3.07;56.46
71126;BME280;58785;55.566;38.058;2024-02-26T10:55:53;101407.06;;;3.17;56.29
71126;BME280;58785;55.566;38.058;2024-02-26T10:58:20;101415.41;;;3.27;56.40
71126;BME280;58785;55.566;38.058;2024-02-26T11:00:50;101394.25;;;3.29;56.03
71126;BME280;58785;55.566;38.058;2024-02-26T11:03:17;101402.81;;;3.34;56.00
71126;BME280;58785;55.566;38.058;2024-02-26T11:05:47;101406.78;;;3.24;56.09
71126;BME280;58785;55.566;38.058;2024-02-26T11:08:14;101397.19;;;3.23;56.07
71126;BME280;58785;55.566;38.058;2024-02-26T11:10:40;101399.16;;;3.17;55.86
71126;BME280;58785;55.566;38.058;2024-02-26T11:13:09;101401.63;;;3.21;55.89
71126;BME280;58785;55.566;38.058;2024-02-26T11:15:38;101397.44;;;3.16;56.54
71126;BME280;58785;55.566;38.058;2024-02-26T11:18:05;101388.75;;;3.14;56.18
71126;BME280;58785;55.566;38.058;2024-02-26T11:20:33;101386.03;;;3.16;56.26
71126;BME280;58785;55.566;38.058;2024-02-26T11:23:00;101378.22;;;3.14;55.78
71126;BME280;58785;55.566;38.058;2024-02-26T11:25:25;101390.69;;;3.11;56.36
71126;BME280;58785;55.566;38.058;2024-02-26T11:28:02;101385.53;;;3.08;56.29
71126;BME280;58785;55.566;38.058;2024-02-26T11:30:31;101383.22;;;3.00;56.20
71126;BME280;58785;55.566;38.058;2024-02-26T11:32:58;101375.53;;;2.96;56.18
71126;BME280;58785;55.566;38.058;2024-02-26T11:35:24;101380.22;;;2.89;55.99
71126;BME280;58785;55.566;38.058;2024-02-26T11:37:57;101386.00;;;2.97;56.47
71126;BME280;58785;55.566;38.058;2024-02-26T11:40:24;101381.47;;;3.01;55.98
71126;BME280;58785;55.566;38.058;2024-02-26T11:42:51;101383.50;;;2.94;55.99
71126;BME280;58785;55.566;38.058;2024-02-26T11:48:14;101369.28;;;2.98;56.10
71126;BME280;58785;55.566;38.058;2024-02-26T11:50:42;101372.66;;;3.02;55.60
71126;BME280;58785;55.566;38.058;2024-02-26T11:53:24;101372.75;;;2.99;55.36
71126;BME280;58785;55.566;38.058;2024-02-26T11:58:42;101377.47;;;2.92;55.27
71126;BME280;58785;55.566;38.058;2024-02-26T12:01:42;101370.50;;;2.91;54.64
71126;BME280;58785;55.566;38.058;2024-02-26T12:04:22;101377.56;;;2.89;54.83
71126;BME280;58785;55.566;38.058;2024-02-26T12:06:57;101375.47;;;2.97;55.13
71126;BME280;58785;55.566;38.058;2024-02-26T12:09:32;101373.13;;;3.10;54.54
71126;BME280;58785;55.566;38.058;2024-02-26T12:12:00;101361.97;;;3.05;54.74
71126;BME280;58785;55.566;38.058;2024-02-26T12:14:27;101368.88;;;3.07;54.74
71126;BME280;58785;55.566;38.058;2024-02-26T12:16:55;101350.81;;;2.98;54.26
71126;BME280;58785;55.566;38.058;2024-02-26T12:19:21;101354.31;;;2.99;54.22
71126;BME280;58785;55.566;38.058;2024-02-26T12:21:51;101335.34;;;2.91;54.02
71126;BME280;58785;55.566;38.058;2024-02-26T12:24:19;101362.00;;;2.84;54.61
71126;BME280;58785;55.566;38.058;2024-02-26T12:26:45;101349.47;;;2.69;54.77
71126;BME280;58785;55.566;38.058;2024-02-26T12:29:11;101352.72;;;2.76;53.90
71126;BME280;58785;55.566;38.058;2024-02-26T12:31:37;101360.59;;;2.76;54.11
71126;BME280;58785;55.566;38.058;2024-02-26T12:34:04;101356.53;;;2.69;53.88
71126;BME280;58785;55.566;38.058;2024-02-26T12:36:30;101356.03;;;2.61;53.78
71126;BME280;58785;55.566;38.058;2024-02-26T12:38:56;101344.09;;;2.52;53.51
71126;BME280;58785;55.566;38.058;2024-02-26T12:41:22;101359.06;;;2.51;53.58
71126;BME280;58785;55.566;38.058;2024-02-26T12:43:48;101362.41;;;2.55;53.67
71126;BME280;58785;55.566;38.058;2024-02-26T12:46:15;101356.44;;;2.50;52.92
71126;BME280;58785;55.566;38.058;2024-02-26T12:48:46;101354.88;;;2.46;53.61